Main page
METAR-TAF:

METAR-TAF

Airports :

Oil platform Norsk Hydro

Oseberg, Norway

latitude: 60-29-29N, longitude: 2-49-32E, elevation: 158 m

Current weather observation

The report was made 49 minutes ago, at 23:50 UTC
Wind 7 kt from the West
Temperature 8°C
Humidity 93%
Pressure 1028 hPa
Visibility 10 km or more
Overcast at a height of 800 ft

METAR: ENOA 232350Z 26007KT 9999 OVC008 08/07 Q1028 W///S3

Time: 02:39 (00:39 UTC)

Forecast

Forecast valid from 24 at 00 UTC to 24 at 24 UTC
Wind 10 kt from the West
Visibility: 9000 m
Broken clouds at a height of 800 ft
Temporary
from 24 at 00 UTC to 24 at 15 UTC
Visibility: 3000 m
Broken clouds at a height of 400 ft
mist
Becoming
from 24 at 07 UTC to 24 at 09 UTC
Wind 10 kt from the South
Becoming
from 24 at 15 UTC to 24 at 18 UTC
Scattered clouds at a height of 1000 ft

TAF: ENOA 2400/2424 26010KT 9000 BKN008 TEMPO 2400/2415 3000 BR BKN004 BECMG 2407/2409 19010KT BECMG 2415/2418 SCT010

Weather observations and forecasts of more than 4000 airports (METAR and TAF reports).

The available stations are represented by yellow and red dots on the map.

Hover mouse over dot to see the name of the station.

Then click to see weather observations and forecasts.

To change the map : click on the green buttons with a black cross to zoom in, on the green button with a dash to zoom out, or on the green arrows for adjacent maps.


METAR-TAF: